createdAt,value
2018-02-10T00:01:03.868Z,41.97
2018-02-10T00:03:31.383Z,42.23
2018-02-10T00:05:58.906Z,39.50
2018-02-10T00:08:26.455Z,39.97
2018-02-10T00:10:53.957Z,41.17
2018-02-10T00:13:21.470Z,39.77
2018-02-10T00:15:48.983Z,42.20
2018-02-10T00:18:16.515Z,40.70
2018-02-10T00:20:44.030Z,41.00
2018-02-10T00:23:11.538Z,39.03
2018-02-10T00:25:39.054Z,42.17
2018-02-10T00:28:06.562Z,40.57
2018-02-10T00:30:34.083Z,41.83
2018-02-10T00:33:01.606Z,41.60
2018-02-10T00:35:29.106Z,42.53
2018-02-10T00:37:56.604Z,42.50
2018-02-10T00:40:24.120Z,40.60
2018-02-10T00:42:51.629Z,39.13
2018-02-10T00:45:19.147Z,41.67
2018-02-10T00:47:46.636Z,40.00
2018-02-10T00:50:14.153Z,42.70
2018-02-10T00:52:41.683Z,41.10
2018-02-10T00:55:09.181Z,43.20
2018-02-10T00:57:36.684Z,42.03
2018-02-10T01:00:05.860Z,41.63
2018-02-10T01:02:33.394Z,40.60
2018-02-10T01:05:00.908Z,41.00
2018-02-10T01:07:28.411Z,40.47
2018-02-10T01:09:55.899Z,41.37
2018-02-10T01:12:23.410Z,41.00
2018-02-10T01:14:50.915Z,44.17
2018-02-10T01:17:18.409Z,41.73
2018-02-10T01:19:46.107Z,43.47
2018-02-10T01:22:13.618Z,44.47
2018-02-10T01:24:41.128Z,42.70
2018-02-10T01:27:08.652Z,43.07
2018-02-10T01:29:36.155Z,45.57
2018-02-10T01:32:03.685Z,44.20
2018-02-10T01:34:31.195Z,42.40
2018-02-10T01:36:58.722Z,41.73
2018-02-10T01:39:26.243Z,42.73
2018-02-10T01:41:53.759Z,44.17
2018-02-10T01:44:21.257Z,40.63
2018-02-10T01:46:48.770Z,40.53
2018-02-10T01:49:16.279Z,41.63
2018-02-10T01:51:43.777Z,41.23
2018-02-10T01:54:11.272Z,43.23
2018-02-10T01:56:38.771Z,42.37
2018-02-10T01:59:06.270Z,40.90
2018-02-10T02:01:33.760Z,41.00
2018-02-10T02:04:01.284Z,41.63
2018-02-10T02:06:28.802Z,41.40
2018-02-10T02:08:56.304Z,41.70
2018-02-10T02:11:23.803Z,42.47
2018-02-10T02:13:51.311Z,41.67
2018-02-10T02:16:18.818Z,43.03
2018-02-10T02:18:46.339Z,40.77
2018-02-10T02:21:13.853Z,40.27
2018-02-10T02:23:41.392Z,41.30
2018-02-10T02:26:08.898Z,43.87
2018-02-10T02:28:36.484Z,40.80
2018-02-10T02:31:03.985Z,41.00
2018-02-10T02:33:31.494Z,40.83
2018-02-10T02:35:59.032Z,40.67
2018-02-10T02:38:26.548Z,40.73
2018-02-10T02:40:54.054Z,40.60
2018-02-10T02:43:21.566Z,40.90
2018-02-10T02:45:49.089Z,42.50
2018-02-10T02:48:16.599Z,41.77
2018-02-10T02:50:44.118Z,41.63
2018-02-10T02:53:11.635Z,38.20
2018-02-10T02:55:39.132Z,40.50
2018-02-10T02:58:06.628Z,41.60
2018-02-10T03:00:34.136Z,41.13
2018-02-10T03:03:01.640Z,39.03
2018-02-10T03:05:29.182Z,40.03
2018-02-10T03:07:56.726Z,40.13
2018-02-10T03:10:24.220Z,38.63
2018-02-10T03:12:51.750Z,40.17
2018-02-10T03:15:19.255Z,38.43
2018-02-10T03:17:46.820Z,37.37
2018-02-10T03:20:14.323Z,38.93
2018-02-10T03:22:41.835Z,39.03
2018-02-10T03:25:09.359Z,38.97
2018-02-10T03:27:36.853Z,40.67
2018-02-10T03:30:04.384Z,35.93
2018-02-10T03:32:31.899Z,41.50
2018-02-10T03:34:59.393Z,39.13
2018-02-10T03:37:26.894Z,37.93
2018-02-10T03:39:54.419Z,37.90
2018-02-10T03:42:21.974Z,36.57
2018-02-10T03:44:49.722Z,37.73
2018-02-10T03:47:17.223Z,37.00
2018-02-10T03:49:44.728Z,36.20
2018-02-10T03:52:12.248Z,36.10
2018-02-10T03:54:39.748Z,37.80
2018-02-10T03:57:07.271Z,38.20
2018-02-10T03:59:34.793Z,39.77
2018-02-10T04:02:02.301Z,38.10
2018-02-10T04:04:29.843Z,37.47
2018-02-10T04:06:57.379Z,37.47
2018-02-10T04:09:24.888Z,37.50
2018-02-10T04:11:52.415Z,37.53
2018-02-10T04:14:19.958Z,37.13
2018-02-10T04:16:47.472Z,37.63
2018-02-10T04:19:15.098Z,37.03
2018-02-10T04:21:42.644Z,37.47
2018-02-10T04:24:10.190Z,36.83
2018-02-10T04:26:37.696Z,37.93
2018-02-10T04:29:05.230Z,36.83
2018-02-10T04:31:32.747Z,36.43
2018-02-10T04:34:00.256Z,38.60
2018-02-10T04:36:27.763Z,36.87
2018-02-10T04:38:55.270Z,37.17
2018-02-10T04:41:22.773Z,38.03
2018-02-10T04:43:50.290Z,37.07
2018-02-10T04:46:17.788Z,39.37
2018-02-10T04:48:45.324Z,37.13
2018-02-10T04:51:12.850Z,38.17
2018-02-10T04:53:40.347Z,38.03
2018-02-10T04:56:07.863Z,36.60
2018-02-10T04:58:35.394Z,36.40
2018-02-10T05:01:02.908Z,37.20
2018-02-10T05:03:30.428Z,36.00
2018-02-10T05:05:57.985Z,38.70
2018-02-10T05:08:25.476Z,37.50
2018-02-10T05:10:52.970Z,37.57
2018-02-10T05:13:20.479Z,37.73
2018-02-10T05:15:48.003Z,39.10
2018-02-10T05:18:15.531Z,40.40
2018-02-10T05:20:43.035Z,38.80
2018-02-10T05:23:10.534Z,37.60
2018-02-10T05:25:38.043Z,36.43
2018-02-10T05:28:05.551Z,36.80
2018-02-10T05:30:33.060Z,38.97
2018-02-10T05:33:00.584Z,38.67
2018-02-10T05:35:28.106Z,37.80
2018-02-10T05:37:55.624Z,36.97
2018-02-10T05:40:23.114Z,35.97
2018-02-10T05:42:50.647Z,35.63
2018-02-10T05:45:18.170Z,38.33
2018-02-10T05:47:45.706Z,36.43
2018-02-10T05:50:13.201Z,36.57
2018-02-10T05:52:40.709Z,37.47
2018-02-10T05:55:08.212Z,38.17
2018-02-10T05:57:35.749Z,37.87
2018-02-10T06:00:03.270Z,39.20
2018-02-10T06:02:30.790Z,38.10
2018-02-10T06:04:58.371Z,36.47
2018-02-10T06:07:25.867Z,34.00
2018-02-10T06:09:53.375Z,36.67
2018-02-10T06:12:20.929Z,35.23
2018-02-10T06:14:48.486Z,35.50
2018-02-10T06:17:16.215Z,36.20
2018-02-10T06:19:43.724Z,37.70
2018-02-10T06:22:11.285Z,36.60
2018-02-10T06:24:38.784Z,35.03
2018-02-10T06:27:06.282Z,35.53
2018-02-10T06:29:33.788Z,35.70
2018-02-10T06:32:01.303Z,37.13
2018-02-10T06:34:28.820Z,37.53
2018-02-10T06:36:56.338Z,37.33
2018-02-10T06:39:23.829Z,37.00
2018-02-10T06:41:51.374Z,36.80
2018-02-10T06:44:18.868Z,37.63
2018-02-10T06:46:46.372Z,33.50
2018-02-10T06:49:13.869Z,36.90
2018-02-10T06:51:41.392Z,37.37
2018-02-10T06:54:08.912Z,37.07
2018-02-10T06:56:36.446Z,39.10
2018-02-10T06:59:03.947Z,34.07
2018-02-10T07:01:31.441Z,33.27
2018-02-10T07:03:58.964Z,35.60
2018-02-10T07:06:26.464Z,35.67
2018-02-10T07:08:54.010Z,36.93
2018-02-10T07:11:21.518Z,36.43
2018-02-10T07:13:49.038Z,36.63
2018-02-10T07:16:16.533Z,35.97
2018-02-10T07:18:44.040Z,36.37
2018-02-10T07:21:11.561Z,38.07
2018-02-10T07:23:39.091Z,38.07
2018-02-10T07:26:06.607Z,38.90
2018-02-10T07:28:34.100Z,36.87
2018-02-10T07:31:01.682Z,37.50
2018-02-10T07:33:29.306Z,37.87
2018-02-10T07:35:56.843Z,36.17
2018-02-10T07:38:24.413Z,35.77
2018-02-10T07:40:52.027Z,35.60
2018-02-10T07:43:19.533Z,36.27
2018-02-10T07:45:47.033Z,35.20
2018-02-10T07:48:14.579Z,38.30
2018-02-10T07:50:42.117Z,38.37
2018-02-10T07:53:09.619Z,35.47
2018-02-10T07:55:37.126Z,36.43
2018-02-10T07:58:04.629Z,36.27
2018-02-10T08:00:32.120Z,38.73
2018-02-10T08:02:59.631Z,36.50
2018-02-10T08:05:27.180Z,38.80
2018-02-10T08:07:54.669Z,36.10
2018-02-10T08:10:22.279Z,37.80
2018-02-10T08:12:49.772Z,37.97
2018-02-10T08:15:17.264Z,38.30
2018-02-10T08:17:44.770Z,38.10
2018-02-10T08:20:12.300Z,36.00
2018-02-10T08:22:39.818Z,35.30
2018-02-10T08:25:07.336Z,35.87
2018-02-10T08:27:34.917Z,38.73
2018-02-10T08:30:02.448Z,36.33
2018-02-10T08:32:29.949Z,34.73
2018-02-10T08:34:57.448Z,36.10
2018-02-10T08:37:24.935Z,35.00
2018-02-10T08:39:52.499Z,33.07
2018-02-10T08:42:20.024Z,34.10
2018-02-10T08:44:47.544Z,34.33
2018-02-10T08:47:15.060Z,34.00
2018-02-10T08:49:42.582Z,33.93
2018-02-10T08:52:10.120Z,34.77
2018-02-10T08:54:37.618Z,32.63
2018-02-10T08:57:05.125Z,32.90
2018-02-10T08:59:32.642Z,34.00
2018-02-10T09:02:00.190Z,32.23
2018-02-10T09:04:27.699Z,31.87
2018-02-10T09:06:55.199Z,31.33
2018-02-10T09:09:24.402Z,32.37
2018-02-10T09:11:51.900Z,33.67
2018-02-10T09:14:19.415Z,30.50
2018-02-10T09:16:46.991Z,32.90
2018-02-10T09:19:16.724Z,32.50
2018-02-10T09:21:44.299Z,30.53
2018-02-10T09:24:12.220Z,31.07
2018-02-10T09:26:39.727Z,30.57
2018-02-10T09:29:07.269Z,29.27
2018-02-10T09:31:34.888Z,29.83
2018-02-10T09:34:02.405Z,31.50
2018-02-10T09:36:29.892Z,30.57
2018-02-10T09:38:57.470Z,32.10
2018-02-10T09:41:25.043Z,30.90
2018-02-10T09:43:52.528Z,30.43
2018-02-10T09:46:20.025Z,31.20
2018-02-10T09:48:47.926Z,31.60
2018-02-10T09:51:15.519Z,29.30
2018-02-10T09:53:43.086Z,29.97
2018-02-10T09:56:10.656Z,30.07
2018-02-10T09:58:38.236Z,29.17
2018-02-10T10:01:05.758Z,29.17
2018-02-10T10:03:33.271Z,30.17
2018-02-10T10:06:00.758Z,29.70
2018-02-10T10:08:30.036Z,29.10
2018-02-10T10:10:57.563Z,30.10
2018-02-10T10:13:25.060Z,29.30
2018-02-10T10:15:52.554Z,29.70
2018-02-10T10:18:20.069Z,31.10
2018-02-10T10:20:47.590Z,28.40
2018-02-10T10:23:15.116Z,30.53
2018-02-10T10:25:42.632Z,28.87
2018-02-10T10:28:10.190Z,28.57
2018-02-10T10:30:37.711Z,30.57
2018-02-10T10:33:05.226Z,29.73
2018-02-10T10:35:32.762Z,27.67
2018-02-10T10:38:00.329Z,28.50
2018-02-10T10:40:27.844Z,29.40
2018-02-10T10:42:55.375Z,29.57
2018-02-10T10:45:22.892Z,29.20
2018-02-10T10:47:50.463Z,28.90
2018-02-10T10:50:17.978Z,27.87
2018-02-10T10:52:45.725Z,28.93
2018-02-10T10:55:13.238Z,28.30
2018-02-10T10:57:40.811Z,27.97
2018-02-10T11:00:08.304Z,28.33
2018-02-10T11:02:35.812Z,28.17
2018-02-10T11:05:03.383Z,26.00
2018-02-10T11:07:31.211Z,26.77
2018-02-10T11:09:58.712Z,28.80
2018-02-10T11:12:26.209Z,27.33
2018-02-10T11:14:53.748Z,27.80
2018-02-10T11:17:21.260Z,29.00
2018-02-10T11:19:48.786Z,28.13
2018-02-10T11:22:16.330Z,27.67
2018-02-10T11:24:44.717Z,29.00
2018-02-10T11:27:12.226Z,29.57
2018-02-10T11:29:39.763Z,28.03
2018-02-10T11:32:08.212Z,29.17
2018-02-10T11:34:35.764Z,28.07
2018-02-10T11:37:03.308Z,30.03
2018-02-10T11:39:30.818Z,28.50
2018-02-10T11:41:58.327Z,29.43
2018-02-10T11:44:25.820Z,29.17
2018-02-10T11:46:53.326Z,27.30
2018-02-10T11:49:20.922Z,29.60
2018-02-10T11:51:48.475Z,28.60
2018-02-10T11:54:15.984Z,30.90
2018-02-10T11:56:43.496Z,27.30
2018-02-10T11:59:10.994Z,31.43
2018-02-10T12:01:38.481Z,30.97
2018-02-10T12:04:05.980Z,29.37
2018-02-10T12:06:33.469Z,30.70
2018-02-10T12:09:00.968Z,30.27
2018-02-10T12:11:28.693Z,29.57
2018-02-10T12:13:56.235Z,29.50
2018-02-10T12:16:23.766Z,30.90
2018-02-10T12:18:51.273Z,29.47
2018-02-10T12:21:18.825Z,27.93
2018-02-10T12:23:46.475Z,29.03
2018-02-10T12:26:13.986Z,29.77
2018-02-10T12:28:41.475Z,30.17
2018-02-10T12:31:08.999Z,29.70
2018-02-10T12:33:36.498Z,30.20
2018-02-10T12:36:04.023Z,28.90
2018-02-10T12:38:32.910Z,30.63
2018-02-10T12:41:00.422Z,29.20
2018-02-10T12:43:28.018Z,29.30
2018-02-10T12:45:55.528Z,29.03
2018-02-10T12:51:35.471Z,29.47
2018-02-10T12:54:02.972Z,30.60
2018-02-10T12:56:30.486Z,29.90
2018-02-10T12:58:57.984Z,31.90
2018-02-10T13:01:25.557Z,32.67
2018-02-10T13:03:53.099Z,31.77
2018-02-10T13:06:20.642Z,31.00
2018-02-10T13:08:48.241Z,31.57
2018-02-10T13:14:06.766Z,32.27
2018-02-10T13:16:34.587Z,32.17
2018-02-10T13:19:02.782Z,30.90
2018-02-10T13:21:30.369Z,32.67
2018-02-10T13:24:02.025Z,32.03
2018-02-10T13:26:29.606Z,31.93
2018-02-10T13:28:57.385Z,33.47
2018-02-10T13:31:25.025Z,33.73
2018-02-10T13:33:57.229Z,35.07
2018-02-10T13:36:24.921Z,33.70
2018-02-10T13:38:59.443Z,32.13
2018-02-10T13:41:26.942Z,32.23
2018-02-10T13:43:58.398Z,33.33
2018-02-10T13:46:33.540Z,33.33
2018-02-10T13:49:01.123Z,31.23
2018-02-10T13:51:28.644Z,33.03
2018-02-10T13:53:57.655Z,34.83
2018-02-10T13:56:26.553Z,32.70
2018-02-10T13:58:54.130Z,34.83
2018-02-10T14:01:21.658Z,32.03
2018-02-10T14:03:57.026Z,35.13
2018-02-10T14:06:26.365Z,32.83
2018-02-10T14:08:53.876Z,34.97
2018-02-10T14:11:21.400Z,33.87
2018-02-10T14:16:27.716Z,33.37
2018-02-10T14:18:55.328Z,31.80
2018-02-10T14:21:22.885Z,33.77
2018-02-10T14:23:50.398Z,33.47
2018-02-10T14:26:17.905Z,35.37
2018-02-10T14:28:45.421Z,34.53
2018-02-10T14:31:15.861Z,35.70
2018-02-10T14:33:43.380Z,36.93
2018-02-10T14:36:10.897Z,34.97
2018-02-10T14:38:38.405Z,36.93
2018-02-10T14:41:07.392Z,36.60
2018-02-10T14:43:36.176Z,35.40
2018-02-10T14:46:03.678Z,35.87
2018-02-10T14:48:31.184Z,35.60
2018-02-10T14:50:58.676Z,34.70
2018-02-10T14:53:26.183Z,34.33
2018-02-10T14:55:53.673Z,36.20
2018-02-10T14:58:21.287Z,38.67
2018-02-10T15:00:48.802Z,35.67
2018-02-10T15:03:16.324Z,39.13
2018-02-10T15:05:43.893Z,51.75
2018-02-10T15:08:11.447Z,41.23
2018-02-10T15:10:38.981Z,39.10
2018-02-10T15:13:07.033Z,38.50
2018-02-10T15:15:34.528Z,38.33
2018-02-10T15:18:02.049Z,36.73
2018-02-10T15:20:34.623Z,36.70
2018-02-10T15:23:02.131Z,36.23
2018-02-10T15:25:29.679Z,37.30
2018-02-10T15:27:57.281Z,36.20
2018-02-10T15:33:46.407Z,38.63
2018-02-10T15:36:13.932Z,38.77
2018-02-10T15:38:41.435Z,38.27
2018-02-10T15:41:08.983Z,39.43
2018-02-10T15:43:36.572Z,39.80
2018-02-10T15:46:04.182Z,39.03
2018-02-10T15:48:31.676Z,36.90
2018-02-10T15:50:59.232Z,40.57
2018-02-10T15:53:26.849Z,40.13
2018-02-10T15:55:54.341Z,37.27
2018-02-10T15:58:21.882Z,36.77
2018-02-10T16:00:49.427Z,38.93
2018-02-10T16:03:16.928Z,40.23
2018-02-10T16:05:44.443Z,39.13
2018-02-10T16:08:11.947Z,38.67
2018-02-10T16:10:39.460Z,38.87
2018-02-10T16:13:06.952Z,39.07
2018-02-10T16:15:34.527Z,38.33
2018-02-10T16:18:02.023Z,37.47
2018-02-10T16:20:29.528Z,41.27
2018-02-10T16:22:57.123Z,37.60
2018-02-10T16:25:24.692Z,39.00
2018-02-10T16:27:52.196Z,37.40
2018-02-10T16:30:19.686Z,39.43
2018-02-10T16:32:49.005Z,38.47
2018-02-10T16:35:16.604Z,39.73
2018-02-10T16:37:44.124Z,39.93
2018-02-10T16:40:11.643Z,38.23
2018-02-10T16:42:39.732Z,40.33
2018-02-10T16:45:07.220Z,43.30
2018-02-10T16:47:37.774Z,41.97
2018-02-10T16:50:05.371Z,39.47
2018-02-10T16:52:32.864Z,39.80
2018-02-10T16:55:00.383Z,40.80
2018-02-10T16:57:27.886Z,38.07
2018-02-10T16:59:55.394Z,38.43
2018-02-10T17:02:24.594Z,39.17
2018-02-10T17:04:52.102Z,39.23
2018-02-10T17:07:19.736Z,37.50
2018-02-10T17:09:47.264Z,38.63
2018-02-10T17:12:14.834Z,37.87
2018-02-10T17:14:42.346Z,37.40
2018-02-10T17:17:09.851Z,37.20
2018-02-10T17:19:37.362Z,39.60
2018-02-10T17:22:04.908Z,37.87
2018-02-10T17:24:32.436Z,39.57
2018-02-10T17:26:59.967Z,39.10
2018-02-10T17:29:27.483Z,38.33
2018-02-10T17:31:55.062Z,36.50
2018-02-10T17:34:22.560Z,37.83
2018-02-10T17:36:50.102Z,38.90
2018-02-10T17:39:17.600Z,38.83
2018-02-10T17:41:45.112Z,37.60
2018-02-10T17:44:13.106Z,36.07
2018-02-10T17:46:40.614Z,35.57
2018-02-10T17:49:08.141Z,37.03
2018-02-10T17:51:35.667Z,36.93
2018-02-10T17:54:03.178Z,35.80
2018-02-10T17:56:30.927Z,36.20
2018-02-10T17:58:58.452Z,39.00
2018-02-10T18:01:27.712Z,36.80
2018-02-10T18:03:55.208Z,37.00
2018-02-10T18:06:22.731Z,37.17
2018-02-10T18:08:52.861Z,38.03
2018-02-10T18:11:21.817Z,37.73
2018-02-10T18:13:49.391Z,36.40
2018-02-10T18:16:16.914Z,34.73
2018-02-10T18:18:44.422Z,38.17
2018-02-10T18:21:11.912Z,35.73
2018-02-10T18:23:39.418Z,36.53
2018-02-10T18:26:06.953Z,36.17
2018-02-10T18:28:34.485Z,38.10
2018-02-10T18:31:01.980Z,36.03
2018-02-10T18:33:29.510Z,37.03
2018-02-10T18:35:57.040Z,36.70
2018-02-10T18:38:24.516Z,36.37
2018-02-10T18:40:52.021Z,35.50
2018-02-10T18:43:19.521Z,36.37
2018-02-10T18:45:47.709Z,37.20
2018-02-10T18:48:15.206Z,36.97
2018-02-10T18:50:42.743Z,35.70
2018-02-10T18:53:10.240Z,34.90
2018-02-10T18:55:37.721Z,36.77
2018-02-10T18:58:05.229Z,35.43
2018-02-10T19:00:32.719Z,35.87
2018-02-10T19:03:00.208Z,37.17
2018-02-10T19:05:27.723Z,36.90
2018-02-10T19:07:55.220Z,35.73
2018-02-10T19:10:22.732Z,34.67
2018-02-10T19:12:51.083Z,35.27
2018-02-10T19:15:18.594Z,34.90
2018-02-10T19:17:46.139Z,34.30
2018-02-10T19:20:13.687Z,33.67
2018-02-10T19:22:41.207Z,33.93
2018-02-10T19:25:08.709Z,34.07
2018-02-10T19:27:36.200Z,32.07
2018-02-10T19:30:03.738Z,31.57
2018-02-10T19:32:31.238Z,33.47
2018-02-10T19:34:58.732Z,32.63
2018-02-10T19:37:26.224Z,32.83
2018-02-10T19:39:53.727Z,31.97
2018-02-10T19:42:21.233Z,32.77
2018-02-10T19:44:48.737Z,32.97
2018-02-10T19:47:16.238Z,32.23
2018-02-10T19:49:43.728Z,31.97
2018-02-10T19:52:11.248Z,30.40
2018-02-10T19:54:38.744Z,32.77
2018-02-10T19:57:06.259Z,31.37
2018-02-10T19:59:33.864Z,31.30
2018-02-10T20:02:01.376Z,31.00
2018-02-10T20:04:28.890Z,29.70
2018-02-10T20:06:56.376Z,30.00
2018-02-10T20:09:23.884Z,30.83
2018-02-10T20:11:51.387Z,31.60
2018-02-10T20:14:18.915Z,32.80
2018-02-10T20:16:46.392Z,30.80
2018-02-10T20:19:13.902Z,31.80
2018-02-10T20:21:41.396Z,31.13
2018-02-10T20:24:08.896Z,29.70
2018-02-10T20:26:36.388Z,30.10
2018-02-10T20:29:03.915Z,31.00
2018-02-10T20:31:31.421Z,31.93
2018-02-10T20:33:58.923Z,30.83
2018-02-10T20:36:26.470Z,29.20
2018-02-10T20:38:53.982Z,30.93
2018-02-10T20:41:21.507Z,29.97
2018-02-10T20:43:49.011Z,28.77
2018-02-10T20:46:16.515Z,31.30
2018-02-10T20:48:44.024Z,29.57
2018-02-10T20:51:11.539Z,29.57
2018-02-10T20:53:39.071Z,30.93
2018-02-10T20:56:06.582Z,31.73
2018-02-10T20:58:34.095Z,31.17
2018-02-10T21:01:01.612Z,30.90
2018-02-10T21:03:29.145Z,32.03
2018-02-10T21:05:56.687Z,27.87
2018-02-10T21:08:24.214Z,30.13
2018-02-10T21:10:51.710Z,28.67
2018-02-10T21:13:19.257Z,28.53
2018-02-10T21:15:46.783Z,27.60
2018-02-10T21:18:14.287Z,27.83
2018-02-10T21:20:41.810Z,28.83
2018-02-10T21:23:09.302Z,27.67
2018-02-10T21:25:36.829Z,29.70
2018-02-10T21:28:04.403Z,28.20
2018-02-10T21:30:31.914Z,28.17
2018-02-10T21:32:59.418Z,29.60
2018-02-10T21:35:26.914Z,28.97
2018-02-10T21:37:54.610Z,29.47
2018-02-10T21:40:22.108Z,27.97
2018-02-10T21:42:50.013Z,29.13
2018-02-10T21:45:17.522Z,28.50
2018-02-10T21:47:45.023Z,27.47
2018-02-10T21:50:12.611Z,30.10
2018-02-10T21:52:40.566Z,29.40
2018-02-10T21:55:08.091Z,28.93
2018-02-10T21:57:35.629Z,29.60
2018-02-10T22:00:03.138Z,28.93
2018-02-10T22:02:30.650Z,28.77
2018-02-10T22:04:58.160Z,28.70
2018-02-10T22:07:25.848Z,29.00
2018-02-10T22:09:53.358Z,29.60
2018-02-10T22:12:20.880Z,28.27
2018-02-10T22:14:50.069Z,28.90
2018-02-10T22:17:18.236Z,29.30
2018-02-10T22:19:45.760Z,25.97
2018-02-10T22:22:13.256Z,27.27
2018-02-10T22:24:40.746Z,28.17
2018-02-10T22:27:08.298Z,26.73
2018-02-10T22:29:35.788Z,29.13
2018-02-10T22:32:03.285Z,26.47
2018-02-10T22:34:30.780Z,28.87
2018-02-10T22:36:58.311Z,26.10
2018-02-10T22:39:25.797Z,27.97
2018-02-10T22:41:53.341Z,26.30
2018-02-10T22:44:20.857Z,26.83
2018-02-10T22:46:48.350Z,25.97
2018-02-10T22:49:15.850Z,27.13
2018-02-10T22:51:43.621Z,25.77
2018-02-10T22:54:11.109Z,25.70
2018-02-10T22:56:38.604Z,27.40
2018-02-10T22:59:06.103Z,25.13
2018-02-10T23:01:33.637Z,26.13
2018-02-10T23:04:01.138Z,25.83
2018-02-10T23:06:28.666Z,25.40
2018-02-10T23:08:56.180Z,25.70
2018-02-10T23:11:23.682Z,27.07
2018-02-10T23:13:51.205Z,26.40
2018-02-10T23:16:18.700Z,25.57
2018-02-10T23:18:46.217Z,27.10
2018-02-10T23:21:13.717Z,25.70
2018-02-10T23:23:41.238Z,24.87
2018-02-10T23:26:08.749Z,25.07
2018-02-10T23:28:36.279Z,24.77
2018-02-10T23:31:03.784Z,24.63
2018-02-10T23:33:31.315Z,26.23
2018-02-10T23:35:58.839Z,26.00
2018-02-10T23:38:26.349Z,24.03
2018-02-10T23:40:53.877Z,23.37
2018-02-10T23:43:21.404Z,25.57
2018-02-10T23:45:48.927Z,25.10
2018-02-10T23:48:16.449Z,25.93
2018-02-10T23:50:43.267Z,24.20
2018-02-10T23:53:10.764Z,24.47
2018-02-10T23:55:38.266Z,22.60
2018-02-10T23:58:05.793Z,24.47
